Terminal Aerodrome Forecast
Issued by NWS Wakefield, VA

Home | Current Version | Previous Version | Text Only | Print | Product List | Glossary On
Versions: 1 2 3 4 5 6 7 8 9 10 11 12 13 14 15 16 17 18 19 20
000
FTUS41 KAKQ 171000 AAB
TAFECG
TAF AMD
KECG 171000Z 1710/1806 19004KT P6SM BKN012
      TEMPO 1710/1713 OVC008
     FM171600 19007KT P6SM OVC020=

USA.gov is the U.S. government's official web portal to all federal, state and local government web resources and services.